Terminal Aerodrome Forecast
Issued by NWS Charleston, WV

Home | Current Version | Previous Version | Text Only | Print | Product List | Glossary On
Versions: 1 2 3 4 5 6 7 8 9 10 11 12 13 14 15 16 17 18 19 20 21 22 23 24 25 26 27
000
FTUS41 KRLX 022332
TAFEKN
TAF
KEKN 022332Z 0300/0324 08004KT P6SM BKN006
     FM030200 VRB03KT 5SM BR BKN008
     FM030400 VRB03KT 4SM BR OVC009
     FM030600 VRB03KT 2SM BR OVC012
     FM030800 VRB03KT 1SM BR OVC012
     FM031400 11004KT 4SM BR OVC020
     FM031800 11004KT P6SM BKN025=

USA.gov is the U.S. government's official web portal to all federal, state and local government web resources and services.